Time;durP1;ratioP1;P1;durP2;ratioP2;P2;SDS_P1;SDS_P2;PMS_P1;PMS_P2;Temp;Humidity;BMP_temperature;BMP_pressure;BME280_temperature;BME280_humidity;BME280_pressure;Samples;Min_cycle;Max_cycle;Signal;HPM_P1;HPM_P2
2020/12/27 00:01:56;;;;;;;3.07;1.77;;;;;;;;;;10444895;28;20192;-72
2020/12/27 00:07:08;;;;;;;8.17;2.27;;;;;;;;;;10459496;28;20315;-72
2020/12/27 00:12:11;;;;;;;6.30;2.83;;;;;;;;;;10442381;28;20190;-72
2020/12/27 00:17:13;;;;;;;3.97;1.93;;;;;;;;;;10452569;28;20817;-72
2020/12/27 00:22:14;;;;;;;3.47;1.80;;;;;;;;;;10419325;28;20217;-72
2020/12/27 00:27:17;;;;;;;4.50;1.80;;;;;;;;;;10451801;28;20204;-73
2020/12/27 00:32:18;;;;;;;6.40;2.00;;;;;;;;;;10432585;28;20224;-71
2020/12/27 00:37:25;;;;;;;1.87;0.87;;;;;;;;;;10457095;28;20648;-72
2020/12/27 00:42:27;;;;;;;1.23;0.73;;;;;;;;;;10452536;28;20212;-73
2020/12/27 00:47:29;;;;;;;1.50;0.53;;;;;;;;;;10450196;28;20267;-73
2020/12/27 00:52:30;;;;;;;2.33;1.10;;;;;;;;;;10449585;28;20240;-73
2020/12/27 00:57:33;;;;;;;2.93;1.17;;;;;;;;;;10453835;28;20197;-72
2020/12/27 01:02:34;;;;;;;6.73;2.30;;;;;;;;;;10448470;28;20586;-71
2020/12/27 01:07:43;;;;;;;5.60;2.20;;;;;;;;;;10444210;28;20201;-73
2020/12/27 01:12:46;;;;;;;2.50;1.27;;;;;;;;;;10449348;28;20220;-73
2020/12/27 01:17:47;;;;;;;5.03;1.90;;;;;;;;;;10439400;28;20186;-73
2020/12/27 01:22:49;;;;;;;4.97;1.17;;;;;;;;;;10450347;28;20216;-73
2020/12/27 01:27:52;;;;;;;4.80;2.00;;;;;;;;;;10455377;28;20234;-73
2020/12/27 01:32:53;;;;;;;0.60;0.53;;;;;;;;;;10441490;28;20350;-73
2020/12/27 01:38:06;;;;;;;5.97;2.53;;;;;;;;;;10443674;28;20184;-72
2020/12/27 01:43:08;;;;;;;4.33;1.80;;;;;;;;;;10436460;28;20299;-71
2020/12/27 01:48:11;;;;;;;5.47;2.20;;;;;;;;;;10456809;28;20244;-73
2020/12/27 01:53:13;;;;;;;3.07;1.00;;;;;;;;;;10437049;28;20213;-73
2020/12/27 01:58:17;;;;;;;6.47;2.10;;;;;;;;;;10471248;28;20197;-72
2020/12/27 02:03:18;;;;;;;17.60;4.97;;;;;;;;;;10443814;28;20295;-72
2020/12/27 02:08:21;;;;;;;11.43;2.80;;;;;;;;;;10430581;28;20240;-73
2020/12/27 02:13:24;;;;;;;5.80;2.37;;;;;;;;;;10447293;28;20235;-72
2020/12/27 02:18:25;;;;;;;3.63;1.50;;;;;;;;;;10449474;28;20235;-73
2020/12/27 02:23:27;;;;;;;9.60;3.00;;;;;;;;;;10456349;28;20201;-73
2020/12/27 02:28:29;;;;;;;11.57;3.63;;;;;;;;;;10445201;28;20277;-73
2020/12/27 02:33:31;;;;;;;4.20;1.27;;;;;;;;;;10454428;28;20221;-73
2020/12/27 02:38:41;;;;;;;15.67;5.57;;;;;;;;;;10473217;28;20267;-73
2020/12/27 02:43:44;;;;;;;14.40;3.90;;;;;;;;;;10473897;28;20252;-72
2020/12/27 02:48:46;;;;;;;19.93;5.97;;;;;;;;;;10431897;28;20305;-72
2020/12/27 02:53:48;;;;;;;21.23;6.30;;;;;;;;;;10454867;28;20714;-73
2020/12/27 02:58:52;;;;;;;11.00;4.50;;;;;;;;;;10445986;28;20201;-73
2020/12/27 03:03:54;;;;;;;16.90;5.73;;;;;;;;;;10455821;28;20312;-73
2020/12/27 03:09:03;;;;;;;35.13;11.70;;;;;;;;;;10460959;28;20637;-72
2020/12/27 03:14:07;;;;;;;11.53;3.33;;;;;;;;;;10465443;28;20231;-73
2020/12/27 03:19:09;;;;;;;16.67;6.63;;;;;;;;;;10461634;28;20655;-73
2020/12/27 03:24:10;;;;;;;3.03;1.30;;;;;;;;;;10461999;28;20595;-70
2020/12/27 03:29:13;;;;;;;3.87;1.40;;;;;;;;;;10461635;28;20197;-73
2020/12/27 03:34:15;;;;;;;2.27;0.90;;;;;;;;;;10458307;28;20254;-73
2020/12/27 03:39:19;;;;;;;3.83;1.13;;;;;;;;;;10446268;28;20240;-73
2020/12/27 03:44:21;;;;;;;6.83;2.20;;;;;;;;;;10434315;28;20220;-73
2020/12/27 03:49:23;;;;;;;5.70;1.70;;;;;;;;;;10430484;28;20278;-73
2020/12/27 03:54:24;;;;;;;4.43;1.87;;;;;;;;;;10434897;28;20601;-73
2020/12/27 03:59:27;;;;;;;3.50;1.43;;;;;;;;;;10433987;28;20247;-73
2020/12/27 04:04:28;;;;;;;7.07;2.57;;;;;;;;;;10456889;28;20620;-72
2020/12/27 04:09:37;;;;;;;2.87;1.03;;;;;;;;;;10460685;28;20299;-73
2020/12/27 04:14:40;;;;;;;5.63;2.30;;;;;;;;;;10449103;28;20262;-74
2020/12/27 04:19:42;;;;;;;3.90;1.73;;;;;;;;;;10445667;28;20243;-74
2020/12/27 04:24:44;;;;;;;1.67;0.67;;;;;;;;;;10452697;28;20220;-74
2020/12/27 04:29:46;;;;;;;6.03;2.23;;;;;;;;;;10422249;28;20220;-74
2020/12/27 04:34:48;;;;;;;4.33;1.63;;;;;;;;;;10436575;28;20209;-74
2020/12/27 04:40:01;;;;;;;7.27;1.90;;;;;;;;;;10431057;28;20192;-74
2020/12/27 04:45:03;;;;;;;6.83;2.80;;;;;;;;;;10449018;28;20208;-74
2020/12/27 04:50:05;;;;;;;5.07;2.03;;;;;;;;;;10445338;28;20300;-73
2020/12/27 04:55:07;;;;;;;4.50;1.70;;;;;;;;;;10432295;28;20243;-74
2020/12/27 05:00:10;;;;;;;1.10;0.80;;;;;;;;;;10433335;28;20259;-73
2020/12/27 05:05:14;;;;;;;1.23;0.63;;;;;;;;;;10431398;28;20684;-73
2020/12/27 05:10:16;;;;;;;2.37;1.00;;;;;;;;;;10427695;28;20270;-74
2020/12/27 05:15:21;;;;;;;2.67;1.13;;;;;;;;;;10443317;28;20239;-74
2020/12/27 05:20:22;;;;;;;1.77;1.23;;;;;;;;;;10444287;28;20605;-73
2020/12/27 05:25:25;;;;;;;4.83;1.37;;;;;;;;;;10451029;28;20212;-74
2020/12/27 05:30:27;;;;;;;2.50;1.30;;;;;;;;;;10432885;28;20209;-73
2020/12/27 05:35:29;;;;;;;4.63;1.83;;;;;;;;;;10433785;28;20288;-73
2020/12/27 05:40:37;;;;;;;4.23;1.90;;;;;;;;;;10459216;28;20277;-74
2020/12/27 05:45:39;;;;;;;2.77;1.43;;;;;;;;;;10440123;28;20224;-74
2020/12/27 05:50:42;;;;;;;2.33;1.30;;;;;;;;;;10454953;28;20220;-73
2020/12/27 05:55:47;;;;;;;2.77;1.07;;;;;;;;;;10451176;28;20536;-73
2020/12/27 06:00:54;;;;;;;2.73;1.27;;;;;;;;;;10455905;28;20209;-74
2020/12/27 06:06:11;;;;;;;1.27;0.60;;;;;;;;;;10449702;28;20209;-71
2020/12/27 06:11:22;;;;;;;1.73;0.80;;;;;;;;;;10433428;28;20268;-74
2020/12/27 06:16:36;;;;;;;3.03;1.33;;;;;;;;;;10444795;28;20651;-73
2020/12/27 06:21:40;;;;;;;3.80;1.50;;;;;;;;;;10437904;28;20237;-73
2020/12/27 06:26:42;;;;;;;4.50;2.00;;;;;;;;;;10437176;28;20213;-73
2020/12/27 06:31:48;;;;;;;4.90;1.80;;;;;;;;;;10436675;28;20220;-74
2020/12/27 06:36:50;;;;;;;3.60;1.60;;;;;;;;;;10444683;28;20328;-73
2020/12/27 06:42:05;;;;;;;4.27;1.70;;;;;;;;;;10458602;28;20585;-74
2020/12/27 06:47:07;;;;;;;4.70;1.83;;;;;;;;;;10435864;28;20284;-74
2020/12/27 06:52:19;;;;;;;2.87;1.33;;;;;;;;;;10444576;28;20261;-73
2020/12/27 06:57:39;;;;;;;3.23;1.47;;;;;;;;;;10449117;28;20202;-74
2020/12/27 07:02:42;;;;;;;4.93;1.57;;;;;;;;;;10426186;28;20683;-74
2020/12/27 07:07:44;;;;;;;3.73;1.70;;;;;;;;;;10439472;28;20276;-74
2020/12/27 07:12:47;;;;;;;1.57;1.00;;;;;;;;;;10443299;28;20424;-73
2020/12/27 07:17:50;;;;;;;4.67;1.67;;;;;;;;;;10446345;28;20216;-73
2020/12/27 07:22:54;;;;;;;2.50;1.13;;;;;;;;;;10451145;28;20588;-73
2020/12/27 07:27:58;;;;;;;5.90;2.30;;;;;;;;;;10458652;28;20293;-72
2020/12/27 07:33:05;;;;;;;4.10;1.67;;;;;;;;;;10442041;28;20232;-72
2020/12/27 07:38:08;;;;;;;4.57;1.80;;;;;;;;;;10442235;28;20224;-74
2020/12/27 07:43:10;;;;;;;3.97;1.70;;;;;;;;;;10432180;28;20308;-74
2020/12/27 07:48:12;;;;;;;4.03;1.67;;;;;;;;;;10439169;28;20189;-72
2020/12/27 07:53:19;;;;;;;2.93;1.70;;;;;;;;;;10447423;28;20308;-71
2020/12/27 07:58:21;;;;;;;3.60;1.70;;;;;;;;;;10456528;28;20212;-73
2020/12/27 08:03:23;;;;;;;3.30;1.20;;;;;;;;;;10458758;28;20209;-72
2020/12/27 08:08:25;;;;;;;3.57;2.00;;;;;;;;;;10440106;28;20178;-73
2020/12/27 08:13:27;;;;;;;5.00;2.10;;;;;;;;;;10455644;28;20830;-72
2020/12/27 08:18:29;;;;;;;3.60;1.60;;;;;;;;;;10453014;28;20726;-73
2020/12/27 08:23:31;;;;;;;3.47;1.40;;;;;;;;;;10424858;28;20205;-72
2020/12/27 08:28:35;;;;;;;2.00;0.73;;;;;;;;;;10444292;28;20239;-73
2020/12/27 08:33:37;;;;;;;7.23;2.63;;;;;;;;;;10448498;28;20231;-73
2020/12/27 08:38:44;;;;;;;7.03;1.70;;;;;;;;;;10452878;28;20259;-73
2020/12/27 08:44:00;;;;;;;2.57;1.53;;;;;;;;;;10444630;28;20229;-73
2020/12/27 08:49:04;;;;;;;4.13;1.70;;;;;;;;;;10447151;28;20255;-72
2020/12/27 08:54:21;;;;;;;2.83;1.50;;;;;;;;;;10448068;28;20264;-74
2020/12/27 08:59:22;;;;;;;3.60;1.63;;;;;;;;;;10459613;28;20576;-74
2020/12/27 09:04:25;;;;;;;4.07;1.80;;;;;;;;;;10436917;28;20224;-72
2020/12/27 09:09:27;;;;;;;3.67;1.80;;;;;;;;;;10439772;28;20280;-74
2020/12/27 09:14:40;;;;;;;2.77;1.47;;;;;;;;;;10429137;28;20549;-71
2020/12/27 09:19:49;;;;;;;1.73;1.13;;;;;;;;;;10450575;28;20213;-74
2020/12/27 09:25:14;;;;;;;2.97;1.70;;;;;;;;;;10435428;28;20279;-74
2020/12/27 09:30:26;;;;;;;2.47;1.30;;;;;;;;;;10448103;28;20200;-74
2020/12/27 09:35:42;;;;;;;4.43;2.17;;;;;;;;;;10425105;28;20275;-73
2020/12/27 09:41:03;;;;;;;3.00;1.53;;;;;;;;;;10431650;28;20258;-72
2020/12/27 09:46:06;;;;;;;4.83;1.83;;;;;;;;;;10423628;28;20267;-75
2020/12/27 09:51:16;;;;;;;5.20;2.27;;;;;;;;;;10441573;28;20269;-73
2020/12/27 09:56:18;;;;;;;5.33;2.23;;;;;;;;;;10433546;28;20216;-72
2020/12/27 10:01:26;;;;;;;3.80;1.67;;;;;;;;;;10448753;28;20233;-72
2020/12/27 10:06:30;;;;;;;4.20;2.00;;;;;;;;;;10427206;28;20321;-71
2020/12/27 10:11:32;;;;;;;4.97;2.23;;;;;;;;;;10454549;28;20181;-71
2020/12/27 10:16:33;;;;;;;4.27;2.00;;;;;;;;;;10454560;28;20208;-73
2020/12/27 10:21:36;;;;;;;15.47;6.40;;;;;;;;;;10442337;28;20282;-74
2020/12/27 10:26:39;;;;;;;4.77;2.30;;;;;;;;;;10447842;28;20209;-72
2020/12/27 10:31:41;;;;;;;9.30;4.10;;;;;;;;;;10449691;28;20189;-74
2020/12/27 10:36:45;;;;;;;6.53;2.90;;;;;;;;;;10436397;28;20212;-71
2020/12/27 10:41:47;;;;;;;11.23;5.17;;;;;;;;;;10468327;28;20216;-73
2020/12/27 10:52:25;;;;;;;6.87;2.70;;;;;;;;;;10425441;28;20236;-73
2020/12/27 10:57:27;;;;;;;4.50;1.90;;;;;;;;;;10453684;28;20204;-73
2020/12/27 11:02:28;;;;;;;4.87;2.20;;;;;;;;;;10426803;28;20574;-73
2020/12/27 11:07:31;;;;;;;5.03;2.10;;;;;;;;;;10440829;28;20330;-73
2020/12/27 11:12:33;;;;;;;5.87;2.30;;;;;;;;;;10432692;28;20692;-72
2020/12/27 11:17:34;;;;;;;4.40;2.00;;;;;;;;;;10460868;28;20197;-74
2020/12/27 11:22:38;;;;;;;4.03;2.00;;;;;;;;;;10453336;28;20239;-73
2020/12/27 11:27:39;;;;;;;5.50;2.30;;;;;;;;;;10461333;28;20686;-75
2020/12/27 11:32:41;;;;;;;10.63;5.10;;;;;;;;;;10427479;28;20707;-73
2020/12/27 11:37:44;;;;;;;5.73;2.70;;;;;;;;;;10462453;28;20203;-74
2020/12/27 11:42:46;;;;;;;6.20;2.47;;;;;;;;;;10449106;28;20221;-71
2020/12/27 11:47:47;;;;;;;7.03;2.77;;;;;;;;;;10429208;28;20199;-74
2020/12/27 11:52:50;;;;;;;4.87;2.33;;;;;;;;;;10477117;28;20243;-75
2020/12/27 11:57:52;;;;;;;4.50;2.13;;;;;;;;;;10437141;28;20205;-73
2020/12/27 12:02:54;;;;;;;3.40;2.00;;;;;;;;;;10434996;28;20720;-75
2020/12/27 12:07:57;;;;;;;4.80;2.07;;;;;;;;;;10424861;28;20254;-73
2020/12/27 12:12:59;;;;;;;4.40;2.40;;;;;;;;;;10447980;28;20205;-73
2020/12/27 12:18:02;;;;;;;3.97;1.97;;;;;;;;;;10448127;28;20250;-73
2020/12/27 12:23:04;;;;;;;4.57;1.87;;;;;;;;;;10440484;28;20212;-73
2020/12/27 12:28:06;;;;;;;7.07;3.13;;;;;;;;;;10464114;28;20193;-73
2020/12/27 12:33:08;;;;;;;6.70;2.37;;;;;;;;;;10476963;28;20737;-71
2020/12/27 12:38:10;;;;;;;5.43;2.43;;;;;;;;;;10466294;28;20188;-71
2020/12/27 12:43:12;;;;;;;5.97;2.30;;;;;;;;;;10455440;28;20213;-71
2020/12/27 12:48:13;;;;;;;6.50;2.53;;;;;;;;;;10467730;28;20212;-72
2020/12/27 12:53:16;;;;;;;5.97;2.40;;;;;;;;;;10466037;28;20307;-70
2020/12/27 12:58:17;;;;;;;8.30;2.40;;;;;;;;;;10464179;28;20196;-71
2020/12/27 13:03:19;;;;;;;8.03;3.43;;;;;;;;;;10478661;28;20304;-72
2020/12/27 13:08:21;;;;;;;4.57;2.27;;;;;;;;;;10457539;28;20213;-72
2020/12/27 13:13:23;;;;;;;5.53;2.40;;;;;;;;;;10482960;28;20269;-72
2020/12/27 13:18:24;;;;;;;5.70;2.17;;;;;;;;;;10446495;28;20228;-70
2020/12/27 13:23:29;;;;;;;5.60;2.30;;;;;;;;;;10449845;28;20263;-73
2020/12/27 13:28:30;;;;;;;6.67;1.93;;;;;;;;;;10436671;28;20189;-71
2020/12/27 13:33:32;;;;;;;5.37;1.67;;;;;;;;;;10468112;28;20279;-69
2020/12/27 13:38:34;;;;;;;3.17;1.70;;;;;;;;;;10464226;28;20212;-72
2020/12/27 13:43:36;;;;;;;4.80;1.83;;;;;;;;;;10441803;28;20213;-72
2020/12/27 13:48:38;;;;;;;3.97;1.77;;;;;;;;;;10457873;28;20189;-72
2020/12/27 13:53:42;;;;;;;5.27;1.80;;;;;;;;;;10451756;28;20212;-72
2020/12/27 13:58:44;;;;;;;14.53;5.40;;;;;;;;;;10456592;28;20303;-72
2020/12/27 14:03:46;;;;;;;4.83;2.00;;;;;;;;;;10435296;28;20320;-73
2020/12/27 14:08:49;;;;;;;4.50;1.50;;;;;;;;;;10460812;28;20498;-72
2020/12/27 14:13:51;;;;;;;4.87;1.70;;;;;;;;;;10455201;28;20205;-70
2020/12/27 14:18:52;;;;;;;8.27;3.63;;;;;;;;;;10436865;28;20216;-72
2020/12/27 14:23:55;;;;;;;5.57;2.13;;;;;;;;;;10466539;28;20224;-73
2020/12/27 14:28:56;;;;;;;13.23;5.37;;;;;;;;;;10455696;28;20656;-72
2020/12/27 14:33:58;;;;;;;6.90;3.10;;;;;;;;;;10432894;28;20240;-71
2020/12/27 14:39:00;;;;;;;7.93;2.90;;;;;;;;;;10452232;28;20529;-71
2020/12/27 14:44:02;;;;;;;6.57;2.57;;;;;;;;;;10426465;28;20259;-70
2020/12/27 14:49:04;;;;;;;5.07;2.10;;;;;;;;;;10456778;28;20295;-70
2020/12/27 14:54:06;;;;;;;5.67;2.10;;;;;;;;;;10437809;28;20727;-71
2020/12/27 14:59:08;;;;;;;5.37;2.27;;;;;;;;;;10459386;28;20604;-72
2020/12/27 15:04:10;;;;;;;3.20;1.57;;;;;;;;;;10453209;28;20714;-71
2020/12/27 15:09:12;;;;;;;2.80;1.30;;;;;;;;;;10422817;28;20189;-71
2020/12/27 15:14:14;;;;;;;2.60;1.10;;;;;;;;;;10443586;28;20746;-72
2020/12/27 15:19:15;;;;;;;6.77;2.13;;;;;;;;;;10460756;28;20204;-71
2020/12/27 15:24:21;;;;;;;4.67;1.70;;;;;;;;;;10420619;28;20774;-72
2020/12/27 15:29:23;;;;;;;2.87;1.20;;;;;;;;;;10458507;28;20660;-71
2020/12/27 15:34:24;;;;;;;8.27;3.57;;;;;;;;;;10451517;28;20245;-71
2020/12/27 15:39:27;;;;;;;9.13;3.47;;;;;;;;;;10443721;28;20205;-71
2020/12/27 15:44:29;;;;;;;5.23;1.90;;;;;;;;;;10449008;28;20319;-69
2020/12/27 15:49:31;;;;;;;5.23;1.47;;;;;;;;;;10423681;28;20264;-69
2020/12/27 15:54:35;;;;;;;9.63;3.57;;;;;;;;;;10464618;28;20227;-71
2020/12/27 15:59:36;;;;;;;7.27;3.00;;;;;;;;;;10462576;28;20676;-72
2020/12/27 16:04:38;;;;;;;7.97;3.40;;;;;;;;;;10437481;28;20217;-69
2020/12/27 16:09:41;;;;;;;5.97;2.47;;;;;;;;;;10449447;28;20223;-70
2020/12/27 16:14:43;;;;;;;7.97;2.60;;;;;;;;;;10433169;28;20297;-72
2020/12/27 16:19:45;;;;;;;6.60;2.57;;;;;;;;;;10447002;28;20229;-71
2020/12/27 16:24:47;;;;;;;7.43;3.07;;;;;;;;;;10455248;28;20213;-72
2020/12/27 16:29:50;;;;;;;7.63;2.93;;;;;;;;;;10441743;28;20612;-70
2020/12/27 16:34:54;;;;;;;3.70;1.47;;;;;;;;;;10455355;28;20209;-72
2020/12/27 16:39:57;;;;;;;6.47;3.00;;;;;;;;;;10447371;28;20221;-72
2020/12/27 16:44:59;;;;;;;7.77;3.40;;;;;;;;;;10444450;28;20629;-72
2020/12/27 16:50:01;;;;;;;7.97;3.00;;;;;;;;;;10459109;28;20197;-72
2020/12/27 16:55:03;;;;;;;8.43;3.43;;;;;;;;;;10468646;28;20213;-70
2020/12/27 17:00:05;;;;;;;10.53;3.70;;;;;;;;;;10445519;28;20216;-70
2020/12/27 17:05:07;;;;;;;8.57;4.23;;;;;;;;;;10437974;28;20263;-72
2020/12/27 17:10:11;;;;;;;9.00;4.23;;;;;;;;;;10442615;28;20513;-72
2020/12/27 17:15:12;;;;;;;6.87;3.43;;;;;;;;;;10447540;28;20206;-73
2020/12/27 17:20:14;;;;;;;8.33;3.63;;;;;;;;;;10464607;28;20243;-73
2020/12/27 17:25:17;;;;;;;8.77;3.70;;;;;;;;;;10442328;28;20303;-72
2020/12/27 17:30:18;;;;;;;10.77;4.10;;;;;;;;;;10455656;28;20185;-71
2020/12/27 17:35:20;;;;;;;8.83;4.30;;;;;;;;;;10463276;28;20240;-72
2020/12/27 17:40:22;;;;;;;7.90;3.63;;;;;;;;;;10445384;28;20251;-72
2020/12/27 17:45:27;;;;;;;5.60;2.80;;;;;;;;;;10441728;28;20212;-72
2020/12/27 17:50:28;;;;;;;10.30;4.50;;;;;;;;;;10439102;28;20224;-72
2020/12/27 17:55:31;;;;;;;10.17;4.50;;;;;;;;;;10446115;28;20238;-71
2020/12/27 18:00:34;;;;;;;10.63;4.70;;;;;;;;;;10446004;28;20223;-70
2020/12/27 18:05:36;;;;;;;8.90;4.40;;;;;;;;;;10440634;28;20209;-72
2020/12/27 18:10:38;;;;;;;14.30;5.90;;;;;;;;;;10446835;28;20181;-70
2020/12/27 18:15:40;;;;;;;9.60;5.03;;;;;;;;;;10447521;28;20208;-71
2020/12/27 18:20:42;;;;;;;8.13;4.00;;;;;;;;;;10459491;28;20212;-70
2020/12/27 18:25:44;;;;;;;17.30;5.73;;;;;;;;;;10454259;28;20316;-71
2020/12/27 18:30:46;;;;;;;9.87;3.77;;;;;;;;;;10459233;28;20344;-72
2020/12/27 18:35:48;;;;;;;13.63;4.80;;;;;;;;;;10460551;28;20251;-71
2020/12/27 18:40:51;;;;;;;14.07;5.40;;;;;;;;;;10453809;28;20308;-72
2020/12/27 18:45:52;;;;;;;10.87;4.73;;;;;;;;;;10460062;28;20286;-72
2020/12/27 18:50:54;;;;;;;9.27;3.93;;;;;;;;;;10451930;28;20720;-71
2020/12/27 18:55:56;;;;;;;6.77;2.73;;;;;;;;;;10456522;28;20227;-72
2020/12/27 19:01:01;;;;;;;8.97;4.10;;;;;;;;;;10454049;28;20210;-72
2020/12/27 19:06:04;;;;;;;6.23;2.80;;;;;;;;;;10427970;28;20218;-72
2020/12/27 19:11:06;;;;;;;11.90;4.47;;;;;;;;;;10461172;28;20197;-72
2020/12/27 19:16:08;;;;;;;9.83;3.93;;;;;;;;;;10456530;28;20220;-71
2020/12/27 19:21:13;;;;;;;6.77;2.43;;;;;;;;;;10443334;28;20304;-73
2020/12/27 19:26:20;;;;;;;6.73;2.93;;;;;;;;;;10451607;28;20285;-73
2020/12/27 19:31:22;;;;;;;7.47;3.77;;;;;;;;;;10442456;28;20190;-71
2020/12/27 19:36:23;;;;;;;7.47;3.30;;;;;;;;;;10440429;28;20205;-72
2020/12/27 19:41:26;;;;;;;13.07;5.20;;;;;;;;;;10431753;28;20286;-71
2020/12/27 19:46:29;;;;;;;10.17;4.53;;;;;;;;;;10434313;28;20232;-69
2020/12/27 19:51:32;;;;;;;10.37;3.90;;;;;;;;;;10460589;28;20193;-72
2020/12/27 19:56:35;;;;;;;6.63;3.27;;;;;;;;;;10453147;28;20308;-71
2020/12/27 20:01:37;;;;;;;9.57;4.40;;;;;;;;;;10432569;28;20209;-72
2020/12/27 20:06:39;;;;;;;9.47;4.10;;;;;;;;;;10426879;28;20272;-72
2020/12/27 20:11:42;;;;;;;8.90;3.40;;;;;;;;;;10427699;28;20197;-69
2020/12/27 20:16:43;;;;;;;5.23;1.80;;;;;;;;;;10438690;28;20282;-69
2020/12/27 20:21:46;;;;;;;7.37;2.70;;;;;;;;;;10457385;28;20208;-69
2020/12/27 20:26:52;;;;;;;4.27;2.27;;;;;;;;;;10452413;28;20217;-71
2020/12/27 20:31:53;;;;;;;8.63;4.20;;;;;;;;;;10463660;28;20220;-70
2020/12/27 20:36:55;;;;;;;5.97;2.90;;;;;;;;;;10460498;28;20216;-72
2020/12/27 20:41:57;;;;;;;7.73;3.17;;;;;;;;;;10459957;28;20264;-72
2020/12/27 20:46:59;;;;;;;8.07;3.70;;;;;;;;;;10434362;28;20236;-70
2020/12/27 20:52:01;;;;;;;7.50;3.23;;;;;;;;;;10453102;28;20207;-71
2020/12/27 20:57:03;;;;;;;6.63;2.73;;;;;;;;;;10453484;28;20219;-70
2020/12/27 21:02:05;;;;;;;9.07;3.90;;;;;;;;;;10457459;28;20213;-70
2020/12/27 21:07:06;;;;;;;8.37;3.77;;;;;;;;;;10454438;28;20612;-71
2020/12/27 21:12:09;;;;;;;9.27;3.93;;;;;;;;;;10428387;28;20494;-71
2020/12/27 21:17:10;;;;;;;9.83;3.80;;;;;;;;;;10429527;28;20189;-72
2020/12/27 21:22:12;;;;;;;7.07;2.90;;;;;;;;;;10435619;28;20206;-71
2020/12/27 21:27:14;;;;;;;9.10;3.30;;;;;;;;;;10450994;28;20189;-70
2020/12/27 21:32:16;;;;;;;6.47;2.60;;;;;;;;;;10436457;28;20282;-71
2020/12/27 21:37:18;;;;;;;11.97;4.80;;;;;;;;;;10450429;28;20239;-73
2020/12/27 21:42:21;;;;;;;9.80;4.07;;;;;;;;;;10437556;28;20581;-70
2020/12/27 21:47:22;;;;;;;7.03;3.43;;;;;;;;;;10427786;28;20527;-71
2020/12/27 21:52:24;;;;;;;12.00;5.17;;;;;;;;;;10444923;28;20664;-70
2020/12/27 21:57:26;;;;;;;10.23;4.40;;;;;;;;;;10446371;28;20212;-72
2020/12/27 22:02:28;;;;;;;9.83;4.00;;;;;;;;;;10406816;28;20220;-72
2020/12/27 22:07:33;;;;;;;9.83;4.50;;;;;;;;;;10487104;28;20276;-71
2020/12/27 22:12:37;;;;;;;8.40;3.93;;;;;;;;;;10437266;28;20221;-72
2020/12/27 22:17:41;;;;;;;9.47;4.57;;;;;;;;;;10432983;28;20192;-71
2020/12/27 22:22:43;;;;;;;10.10;4.87;;;;;;;;;;10451923;28;20216;-71
2020/12/27 22:27:51;;;;;;;9.50;4.30;;;;;;;;;;10436074;28;20352;-72
2020/12/27 22:32:58;;;;;;;9.60;5.17;;;;;;;;;;10447684;28;20730;-72
2020/12/27 22:38:05;;;;;;;11.30;5.07;;;;;;;;;;10434134;28;20213;-73
2020/12/27 22:43:10;;;;;;;9.63;4.80;;;;;;;;;;10432560;28;20240;-73
2020/12/27 22:48:12;;;;;;;9.57;4.90;;;;;;;;;;10444026;28;20569;-72
2020/12/27 22:53:14;;;;;;;11.63;6.13;;;;;;;;;;10450217;28;20346;-71
2020/12/27 22:58:17;;;;;;;10.63;4.87;;;;;;;;;;10426849;28;20224;-75
2020/12/27 23:03:19;;;;;;;10.00;4.80;;;;;;;;;;10435377;28;20225;-73
2020/12/27 23:08:23;;;;;;;11.23;5.80;;;;;;;;;;10456273;28;20223;-75
2020/12/27 23:13:26;;;;;;;9.37;5.03;;;;;;;;;;10442658;28;20677;-72
2020/12/27 23:18:27;;;;;;;10.20;5.27;;;;;;;;;;10468815;28;20586;-72
2020/12/27 23:23:29;;;;;;;9.37;4.83;;;;;;;;;;10450446;28;20590;-72
2020/12/27 23:28:32;;;;;;;9.73;4.90;;;;;;;;;;10456486;28;20235;-72
2020/12/27 23:33:33;;;;;;;10.00;4.83;;;;;;;;;;10446558;28;20532;-70
2020/12/27 23:38:35;;;;;;;10.70;4.57;;;;;;;;;;10453752;28;20196;-73
2020/12/27 23:43:38;;;;;;;12.47;5.20;;;;;;;;;;10441773;28;20226;-72
2020/12/27 23:48:39;;;;;;;10.13;4.80;;;;;;;;;;10434406;28;20190;-73
2020/12/27 23:53:41;;;;;;;10.23;4.60;;;;;;;;;;10444875;28;20216;-71
2020/12/27 23:58:43;;;;;;;10.27;5.27;;;;;;;;;;10469353;28;20201;-72
